sensor_id;sensor_type;location;lat;lon;timestamp;P1;durP1;ratioP1;P2;durP2;ratioP2
479;SDS011;226;48.606;9.096;2023-04-25T00:00:26;6.90;;;2.83;;
479;SDS011;226;48.606;9.096;2023-04-25T00:02:56;4.10;;;3.03;;
479;SDS011;226;48.606;9.096;2023-04-25T00:05:25;3.03;;;2.57;;
479;SDS011;226;48.606;9.096;2023-04-25T00:07:55;4.37;;;2.90;;
479;SDS011;226;48.606;9.096;2023-04-25T00:10:24;2.80;;;2.60;;
479;SDS011;226;48.606;9.096;2023-04-25T00:12:53;2.60;;;1.90;;
479;SDS011;226;48.606;9.096;2023-04-25T00:15:21;3.33;;;2.90;;
479;SDS011;226;48.606;9.096;2023-04-25T00:17:50;2.00;;;1.80;;
479;SDS011;226;48.606;9.096;2023-04-25T00:20:20;2.30;;;2.20;;
479;SDS011;226;48.606;9.096;2023-04-25T00:22:49;3.17;;;2.83;;
479;SDS011;226;48.606;9.096;2023-04-25T00:25:19;4.07;;;2.53;;
479;SDS011;226;48.606;9.096;2023-04-25T00:27:47;2.30;;;2.10;;
479;SDS011;226;48.606;9.096;2023-04-25T00:30:15;3.40;;;2.40;;
479;SDS011;226;48.606;9.096;2023-04-25T00:32:43;2.30;;;2.20;;
479;SDS011;226;48.606;9.096;2023-04-25T00:35:12;5.20;;;3.20;;
479;SDS011;226;48.606;9.096;2023-04-25T00:37:41;3.93;;;2.43;;
479;SDS011;226;48.606;9.096;2023-04-25T00:40:10;4.03;;;2.80;;
479;SDS011;226;48.606;9.096;2023-04-25T00:42:38;2.60;;;2.40;;
479;SDS011;226;48.606;9.096;2023-04-25T00:45:07;3.20;;;2.57;;
479;SDS011;226;48.606;9.096;2023-04-25T00:47:40;3.07;;;2.80;;
479;SDS011;226;48.606;9.096;2023-04-25T00:50:08;3.00;;;2.40;;
479;SDS011;226;48.606;9.096;2023-04-25T00:52:40;4.50;;;2.90;;
479;SDS011;226;48.606;9.096;2023-04-25T00:55:11;2.50;;;2.40;;
479;SDS011;226;48.606;9.096;2023-04-25T00:57:40;5.40;;;2.60;;
479;SDS011;226;48.606;9.096;2023-04-25T01:00:09;2.47;;;2.30;;
479;SDS011;226;48.606;9.096;2023-04-25T01:02:38;2.63;;;2.40;;
479;SDS011;226;48.606;9.096;2023-04-25T01:05:07;3.40;;;3.03;;
479;SDS011;226;48.606;9.096;2023-04-25T01:07:36;4.47;;;2.70;;
479;SDS011;226;48.606;9.096;2023-04-25T01:10:06;3.47;;;2.20;;
479;SDS011;226;48.606;9.096;2023-04-25T01:12:35;5.07;;;3.30;;
479;SDS011;226;48.606;9.096;2023-04-25T01:15:04;7.90;;;3.27;;
479;SDS011;226;48.606;9.096;2023-04-25T01:17:33;2.90;;;2.57;;
479;SDS011;226;48.606;9.096;2023-04-25T01:20:02;5.20;;;3.60;;
479;SDS011;226;48.606;9.096;2023-04-25T01:22:33;3.10;;;2.80;;
479;SDS011;226;48.606;9.096;2023-04-25T01:25:01;2.90;;;2.23;;
479;SDS011;226;48.606;9.096;2023-04-25T01:27:30;3.73;;;2.77;;
479;SDS011;226;48.606;9.096;2023-04-25T01:29:58;3.73;;;3.17;;
479;SDS011;226;48.606;9.096;2023-04-25T01:32:27;5.40;;;2.70;;
479;SDS011;226;48.606;9.096;2023-04-25T01:34:57;4.07;;;3.00;;
479;SDS011;226;48.606;9.096;2023-04-25T01:37:25;3.17;;;2.93;;
479;SDS011;226;48.606;9.096;2023-04-25T01:39:55;6.83;;;4.63;;
479;SDS011;226;48.606;9.096;2023-04-25T01:42:23;5.00;;;3.20;;
479;SDS011;226;48.606;9.096;2023-04-25T01:44:51;3.13;;;2.77;;
479;SDS011;226;48.606;9.096;2023-04-25T01:47:20;3.93;;;2.30;;
479;SDS011;226;48.606;9.096;2023-04-25T01:49:48;8.40;;;3.77;;
479;SDS011;226;48.606;9.096;2023-04-25T01:52:16;4.47;;;2.93;;
479;SDS011;226;48.606;9.096;2023-04-25T01:54:44;3.77;;;3.47;;
479;SDS011;226;48.606;9.096;2023-04-25T01:57:14;2.80;;;2.60;;
479;SDS011;226;48.606;9.096;2023-04-25T01:59:43;4.27;;;3.10;;
479;SDS011;226;48.606;9.096;2023-04-25T02:02:11;5.70;;;2.87;;
479;SDS011;226;48.606;9.096;2023-04-25T02:04:40;4.43;;;3.30;;
479;SDS011;226;48.606;9.096;2023-04-25T02:07:08;3.57;;;2.63;;
479;SDS011;226;48.606;9.096;2023-04-25T02:09:36;2.97;;;2.53;;
479;SDS011;226;48.606;9.096;2023-04-25T02:12:04;5.27;;;3.43;;
479;SDS011;226;48.606;9.096;2023-04-25T02:14:34;3.43;;;3.23;;
479;SDS011;226;48.606;9.096;2023-04-25T02:17:02;3.97;;;2.90;;
479;SDS011;226;48.606;9.096;2023-04-25T02:19:32;2.87;;;2.60;;
479;SDS011;226;48.606;9.096;2023-04-25T02:22:00;3.23;;;2.53;;
479;SDS011;226;48.606;9.096;2023-04-25T02:24:28;10.47;;;3.73;;
479;SDS011;226;48.606;9.096;2023-04-25T02:26:56;9.63;;;5.00;;
479;SDS011;226;48.606;9.096;2023-04-25T02:29:24;4.40;;;3.10;;
479;SDS011;226;48.606;9.096;2023-04-25T02:31:53;6.40;;;2.90;;
479;SDS011;226;48.606;9.096;2023-04-25T02:34:22;2.00;;;1.87;;
479;SDS011;226;48.606;9.096;2023-04-25T02:36:50;4.93;;;3.43;;
479;SDS011;226;48.606;9.096;2023-04-25T02:39:18;6.17;;;3.30;;
479;SDS011;226;48.606;9.096;2023-04-25T02:41:48;5.83;;;3.47;;
479;SDS011;226;48.606;9.096;2023-04-25T02:44:16;2.17;;;2.07;;
479;SDS011;226;48.606;9.096;2023-04-25T02:46:44;4.90;;;3.47;;
479;SDS011;226;48.606;9.096;2023-04-25T02:49:13;6.10;;;3.40;;
479;SDS011;226;48.606;9.096;2023-04-25T02:51:42;4.20;;;2.97;;
479;SDS011;226;48.606;9.096;2023-04-25T02:54:10;3.80;;;3.00;;
479;SDS011;226;48.606;9.096;2023-04-25T02:56:38;3.70;;;3.07;;
479;SDS011;226;48.606;9.096;2023-04-25T02:59:06;5.90;;;3.07;;
479;SDS011;226;48.606;9.096;2023-04-25T03:01:34;3.73;;;2.70;;
479;SDS011;226;48.606;9.096;2023-04-25T03:04:02;4.70;;;3.10;;
479;SDS011;226;48.606;9.096;2023-04-25T03:06:32;3.37;;;2.40;;
479;SDS011;226;48.606;9.096;2023-04-25T03:09:00;9.47;;;3.17;;
479;SDS011;226;48.606;9.096;2023-04-25T03:11:28;3.97;;;2.80;;
479;SDS011;226;48.606;9.096;2023-04-25T03:13:56;2.93;;;2.73;;
479;SDS011;226;48.606;9.096;2023-04-25T03:16:24;4.00;;;2.83;;
479;SDS011;226;48.606;9.096;2023-04-25T03:18:52;2.77;;;2.57;;
479;SDS011;226;48.606;9.096;2023-04-25T03:21:20;2.57;;;2.37;;
479;SDS011;226;48.606;9.096;2023-04-25T03:23:50;3.53;;;3.17;;
479;SDS011;226;48.606;9.096;2023-04-25T03:26:18;2.63;;;2.43;;
479;SDS011;226;48.606;9.096;2023-04-25T03:28:46;3.43;;;2.57;;
479;SDS011;226;48.606;9.096;2023-04-25T03:31:15;15.27;;;3.13;;
479;SDS011;226;48.606;9.096;2023-04-25T03:33:43;4.13;;;3.37;;
479;SDS011;226;48.606;9.096;2023-04-25T03:36:11;4.27;;;3.37;;
479;SDS011;226;48.606;9.096;2023-04-25T03:38:39;3.40;;;3.13;;
479;SDS011;226;48.606;9.096;2023-04-25T03:41:09;2.50;;;2.30;;
479;SDS011;226;48.606;9.096;2023-04-25T03:43:37;6.40;;;2.80;;
479;SDS011;226;48.606;9.096;2023-04-25T03:46:05;2.80;;;2.60;;
479;SDS011;226;48.606;9.096;2023-04-25T03:48:33;5.50;;;3.80;;
479;SDS011;226;48.606;9.096;2023-04-25T03:51:02;3.40;;;2.53;;
479;SDS011;226;48.606;9.096;2023-04-25T03:53:30;10.60;;;3.83;;
479;SDS011;226;48.606;9.096;2023-04-25T03:55:58;2.67;;;2.37;;
479;SDS011;226;48.606;9.096;2023-04-25T03:58:28;2.90;;;2.57;;
479;SDS011;226;48.606;9.096;2023-04-25T04:00:56;2.73;;;2.50;;
479;SDS011;226;48.606;9.096;2023-04-25T04:03:24;3.03;;;2.53;;
479;SDS011;226;48.606;9.096;2023-04-25T04:05:52;6.73;;;2.90;;
479;SDS011;226;48.606;9.096;2023-04-25T04:08:20;4.43;;;3.23;;
479;SDS011;226;48.606;9.096;2023-04-25T04:10:49;2.30;;;2.20;;
479;SDS011;226;48.606;9.096;2023-04-25T04:13:17;2.57;;;2.40;;
479;SDS011;226;48.606;9.096;2023-04-25T04:15:46;3.33;;;2.77;;
479;SDS011;226;48.606;9.096;2023-04-25T04:18:14;3.50;;;3.20;;
479;SDS011;226;48.606;9.096;2023-04-25T04:20:42;3.57;;;3.23;;
479;SDS011;226;48.606;9.096;2023-04-25T04:23:11;5.23;;;2.60;;
479;SDS011;226;48.606;9.096;2023-04-25T04:25:39;5.60;;;3.63;;
479;SDS011;226;48.606;9.096;2023-04-25T04:28:08;5.50;;;3.27;;
479;SDS011;226;48.606;9.096;2023-04-25T04:30:37;6.97;;;2.90;;
479;SDS011;226;48.606;9.096;2023-04-25T04:33:06;3.73;;;2.83;;
479;SDS011;226;48.606;9.096;2023-04-25T04:35:35;11.00;;;4.03;;
479;SDS011;226;48.606;9.096;2023-04-25T04:38:03;9.10;;;3.60;;
479;SDS011;226;48.606;9.096;2023-04-25T04:40:31;2.90;;;2.70;;
479;SDS011;226;48.606;9.096;2023-04-25T04:42:59;2.67;;;2.57;;
479;SDS011;226;48.606;9.096;2023-04-25T04:45:27;4.00;;;2.70;;
479;SDS011;226;48.606;9.096;2023-04-25T04:47:55;5.20;;;2.93;;
479;SDS011;226;48.606;9.096;2023-04-25T04:50:24;2.83;;;2.30;;
479;SDS011;226;48.606;9.096;2023-04-25T04:52:53;3.10;;;2.90;;
479;SDS011;226;48.606;9.096;2023-04-25T04:55:21;4.50;;;3.20;;
479;SDS011;226;48.606;9.096;2023-04-25T04:57:49;6.97;;;3.37;;
479;SDS011;226;48.606;9.096;2023-04-25T05:00:18;7.10;;;3.40;;
479;SDS011;226;48.606;9.096;2023-04-25T05:02:47;3.07;;;2.70;;
479;SDS011;226;48.606;9.096;2023-04-25T05:05:15;4.00;;;2.53;;
479;SDS011;226;48.606;9.096;2023-04-25T05:07:45;3.33;;;2.80;;
479;SDS011;226;48.606;9.096;2023-04-25T05:10:13;3.00;;;2.80;;
479;SDS011;226;48.606;9.096;2023-04-25T05:12:41;10.23;;;3.50;;
479;SDS011;226;48.606;9.096;2023-04-25T05:15:09;3.20;;;2.63;;
479;SDS011;226;48.606;9.096;2023-04-25T05:17:37;12.90;;;4.03;;
479;SDS011;226;48.606;9.096;2023-04-25T05:20:06;2.77;;;2.40;;
479;SDS011;226;48.606;9.096;2023-04-25T05:22:36;2.83;;;2.33;;
479;SDS011;226;48.606;9.096;2023-04-25T05:25:05;3.63;;;3.33;;
479;SDS011;226;48.606;9.096;2023-04-25T05:27:34;5.67;;;3.40;;
479;SDS011;226;48.606;9.096;2023-04-25T05:30:02;3.97;;;3.20;;
479;SDS011;226;48.606;9.096;2023-04-25T05:32:32;5.97;;;3.13;;
479;SDS011;226;48.606;9.096;2023-04-25T05:35:00;3.10;;;2.73;;
479;SDS011;226;48.606;9.096;2023-04-25T05:37:29;3.67;;;3.43;;
479;SDS011;226;48.606;9.096;2023-04-25T05:39:59;5.20;;;3.90;;
479;SDS011;226;48.606;9.096;2023-04-25T05:42:28;3.80;;;2.30;;
479;SDS011;226;48.606;9.096;2023-04-25T05:44:56;5.80;;;3.20;;
479;SDS011;226;48.606;9.096;2023-04-25T05:47:24;8.17;;;3.30;;
479;SDS011;226;48.606;9.096;2023-04-25T05:49:52;2.80;;;2.60;;
479;SDS011;226;48.606;9.096;2023-04-25T05:52:20;4.17;;;2.90;;
479;SDS011;226;48.606;9.096;2023-04-25T05:54:48;5.23;;;4.30;;
479;SDS011;226;48.606;9.096;2023-04-25T05:57:20;4.20;;;3.60;;
479;SDS011;226;48.606;9.096;2023-04-25T05:59:51;4.60;;;2.40;;
479;SDS011;226;48.606;9.096;2023-04-25T06:02:19;6.03;;;3.03;;
479;SDS011;226;48.606;9.096;2023-04-25T06:04:49;4.63;;;3.57;;
479;SDS011;226;48.606;9.096;2023-04-25T06:07:18;2.73;;;2.50;;
479;SDS011;226;48.606;9.096;2023-04-25T06:09:46;4.27;;;2.37;;
479;SDS011;226;48.606;9.096;2023-04-25T06:12:14;7.70;;;3.50;;
479;SDS011;226;48.606;9.096;2023-04-25T06:14:42;2.83;;;2.23;;
479;SDS011;226;48.606;9.096;2023-04-25T06:17:12;4.27;;;3.47;;
479;SDS011;226;48.606;9.096;2023-04-25T06:19:40;3.33;;;2.67;;
479;SDS011;226;48.606;9.096;2023-04-25T06:22:08;2.80;;;2.57;;
479;SDS011;226;48.606;9.096;2023-04-25T06:24:36;3.03;;;2.27;;
479;SDS011;226;48.606;9.096;2023-04-25T06:27:04;2.87;;;2.67;;
479;SDS011;226;48.606;9.096;2023-04-25T06:29:32;4.73;;;3.53;;
479;SDS011;226;48.606;9.096;2023-04-25T06:32:00;7.63;;;2.73;;
479;SDS011;226;48.606;9.096;2023-04-25T06:34:30;2.70;;;2.50;;
479;SDS011;226;48.606;9.096;2023-04-25T06:36:58;5.23;;;2.40;;
479;SDS011;226;48.606;9.096;2023-04-25T06:39:26;2.07;;;1.97;;
479;SDS011;226;48.606;9.096;2023-04-25T06:41:54;3.13;;;2.83;;
479;SDS011;226;48.606;9.096;2023-04-25T06:44:22;2.20;;;2.00;;
479;SDS011;226;48.606;9.096;2023-04-25T06:46:52;2.47;;;2.27;;
479;SDS011;226;48.606;9.096;2023-04-25T06:49:20;2.43;;;2.23;;
479;SDS011;226;48.606;9.096;2023-04-25T06:51:50;3.87;;;3.00;;
479;SDS011;226;48.606;9.096;2023-04-25T06:54:18;5.40;;;2.90;;
479;SDS011;226;48.606;9.096;2023-04-25T06:56:46;14.23;;;4.10;;
479;SDS011;226;48.606;9.096;2023-04-25T06:59:15;4.83;;;3.03;;
479;SDS011;226;48.606;9.096;2023-04-25T07:01:43;4.00;;;3.20;;
479;SDS011;226;48.606;9.096;2023-04-25T07:04:12;5.10;;;4.03;;
479;SDS011;226;48.606;9.096;2023-04-25T07:06:40;5.10;;;2.80;;
479;SDS011;226;48.606;9.096;2023-04-25T07:09:10;6.70;;;3.80;;
479;SDS011;226;48.606;9.096;2023-04-25T07:11:39;6.33;;;4.20;;
479;SDS011;226;48.606;9.096;2023-04-25T07:14:07;3.83;;;2.93;;
479;SDS011;226;48.606;9.096;2023-04-25T07:16:35;3.33;;;2.77;;
479;SDS011;226;48.606;9.096;2023-04-25T07:19:03;6.27;;;3.33;;
479;SDS011;226;48.606;9.096;2023-04-25T07:21:31;3.17;;;2.63;;
479;SDS011;226;48.606;9.096;2023-04-25T07:24:00;4.50;;;2.53;;
479;SDS011;226;48.606;9.096;2023-04-25T07:26:30;2.83;;;2.63;;
479;SDS011;226;48.606;9.096;2023-04-25T07:28:58;2.70;;;2.50;;
479;SDS011;226;48.606;9.096;2023-04-25T07:31:26;5.53;;;3.70;;
479;SDS011;226;48.606;9.096;2023-04-25T07:33:55;3.63;;;2.80;;
479;SDS011;226;48.606;9.096;2023-04-25T07:36:26;5.40;;;3.80;;
479;SDS011;226;48.606;9.096;2023-04-25T07:38:54;4.50;;;2.93;;
479;SDS011;226;48.606;9.096;2023-04-25T07:41:22;3.47;;;2.83;;
479;SDS011;226;48.606;9.096;2023-04-25T07:43:52;3.80;;;2.93;;
479;SDS011;226;48.606;9.096;2023-04-25T07:46:20;6.43;;;4.40;;
479;SDS011;226;48.606;9.096;2023-04-25T07:48:48;7.17;;;4.50;;
479;SDS011;226;48.606;9.096;2023-04-25T07:51:17;15.60;;;5.77;;
479;SDS011;226;48.606;9.096;2023-04-25T07:53:46;4.37;;;3.20;;
479;SDS011;226;48.606;9.096;2023-04-25T07:56:16;5.57;;;3.83;;
479;SDS011;226;48.606;9.096;2023-04-25T07:58:44;6.20;;;3.60;;
479;SDS011;226;48.606;9.096;2023-04-25T08:01:14;6.03;;;4.03;;
479;SDS011;226;48.606;9.096;2023-04-25T08:03:42;8.43;;;4.27;;
479;SDS011;226;48.606;9.096;2023-04-25T08:06:11;3.50;;;3.20;;
479;SDS011;226;48.606;9.096;2023-04-25T08:08:39;4.00;;;3.57;;
479;SDS011;226;48.606;9.096;2023-04-25T08:11:07;4.47;;;3.30;;
479;SDS011;226;48.606;9.096;2023-04-25T08:13:35;4.33;;;3.23;;
479;SDS011;226;48.606;9.096;2023-04-25T08:16:04;8.63;;;4.17;;
479;SDS011;226;48.606;9.096;2023-04-25T08:18:33;7.50;;;4.23;;
479;SDS011;226;48.606;9.096;2023-04-25T08:21:01;10.60;;;4.83;;
479;SDS011;226;48.606;9.096;2023-04-25T08:23:30;10.63;;;5.30;;
479;SDS011;226;48.606;9.096;2023-04-25T08:25:58;8.10;;;3.80;;
479;SDS011;226;48.606;9.096;2023-04-25T08:28:27;7.90;;;4.00;;
479;SDS011;226;48.606;9.096;2023-04-25T08:30:55;13.53;;;3.53;;
479;SDS011;226;48.606;9.096;2023-04-25T08:33:23;5.80;;;3.53;;
479;SDS011;226;48.606;9.096;2023-04-25T08:35:53;6.97;;;3.57;;
479;SDS011;226;48.606;9.096;2023-04-25T08:38:21;4.83;;;3.47;;
479;SDS011;226;48.606;9.096;2023-04-25T08:40:49;3.57;;;2.53;;
479;SDS011;226;48.606;9.096;2023-04-25T08:43:19;5.17;;;3.80;;
479;SDS011;226;48.606;9.096;2023-04-25T08:45:47;5.90;;;3.33;;
479;SDS011;226;48.606;9.096;2023-04-25T08:48:16;5.03;;;3.77;;
479;SDS011;226;48.606;9.096;2023-04-25T08:50:45;6.03;;;3.37;;
479;SDS011;226;48.606;9.096;2023-04-25T08:53:21;5.70;;;3.33;;
479;SDS011;226;48.606;9.096;2023-04-25T08:55:54;7.40;;;3.60;;
479;SDS011;226;48.606;9.096;2023-04-25T08:58:23;5.50;;;3.13;;
479;SDS011;226;48.606;9.096;2023-04-25T09:00:51;3.60;;;3.13;;
479;SDS011;226;48.606;9.096;2023-04-25T09:03:20;3.30;;;2.67;;
479;SDS011;226;48.606;9.096;2023-04-25T09:05:48;3.40;;;3.10;;
479;SDS011;226;48.606;9.096;2023-04-25T09:08:17;3.43;;;2.73;;
479;SDS011;226;48.606;9.096;2023-04-25T09:10:46;8.33;;;2.67;;
479;SDS011;226;48.606;9.096;2023-04-25T09:13:23;3.10;;;2.47;;
479;SDS011;226;48.606;9.096;2023-04-25T09:15:53;6.70;;;3.13;;
479;SDS011;226;48.606;9.096;2023-04-25T09:18:22;4.23;;;2.80;;
479;SDS011;226;48.606;9.096;2023-04-25T09:20:56;4.87;;;2.90;;
479;SDS011;226;48.606;9.096;2023-04-25T09:23:31;2.83;;;2.57;;
479;SDS011;226;48.606;9.096;2023-04-25T09:26:08;5.90;;;3.20;;
479;SDS011;226;48.606;9.096;2023-04-25T09:28:36;6.10;;;2.40;;
479;SDS011;226;48.606;9.096;2023-04-25T09:31:05;5.60;;;3.43;;
479;SDS011;226;48.606;9.096;2023-04-25T09:33:33;1.37;;;1.27;;
479;SDS011;226;48.606;9.096;2023-04-25T09:36:03;2.70;;;2.50;;
479;SDS011;226;48.606;9.096;2023-04-25T09:38:32;3.63;;;3.33;;
479;SDS011;226;48.606;9.096;2023-04-25T09:41:01;3.87;;;3.40;;
479;SDS011;226;48.606;9.096;2023-04-25T09:43:30;3.13;;;2.77;;
479;SDS011;226;48.606;9.096;2023-04-25T09:45:58;3.00;;;2.10;;
479;SDS011;226;48.606;9.096;2023-04-25T09:48:27;2.10;;;2.00;;
479;SDS011;226;48.606;9.096;2023-04-25T09:51:05;3.03;;;2.77;;
479;SDS011;226;48.606;9.096;2023-04-25T09:53:35;1.67;;;1.60;;
479;SDS011;226;48.606;9.096;2023-04-25T09:56:05;3.67;;;3.33;;
479;SDS011;226;48.606;9.096;2023-04-25T09:58:36;2.97;;;2.73;;
479;SDS011;226;48.606;9.096;2023-04-25T10:01:06;2.23;;;2.13;;
479;SDS011;226;48.606;9.096;2023-04-25T10:03:36;3.43;;;3.13;;
479;SDS011;226;48.606;9.096;2023-04-25T10:06:07;1.77;;;1.67;;
479;SDS011;226;48.606;9.096;2023-04-25T10:08:37;2.60;;;1.90;;
479;SDS011;226;48.606;9.096;2023-04-25T10:11:06;2.27;;;2.17;;
479;SDS011;226;48.606;9.096;2023-04-25T10:13:37;2.83;;;2.53;;
479;SDS011;226;48.606;9.096;2023-04-25T10:16:05;2.60;;;1.37;;
479;SDS011;226;48.606;9.096;2023-04-25T10:18:33;1.60;;;1.60;;
479;SDS011;226;48.606;9.096;2023-04-25T10:21:01;1.63;;;1.40;;
479;SDS011;226;48.606;9.096;2023-04-25T10:23:32;3.00;;;2.20;;
479;SDS011;226;48.606;9.096;2023-04-25T10:26:01;1.70;;;1.67;;
479;SDS011;226;48.606;9.096;2023-04-25T10:28:29;1.67;;;1.57;;
479;SDS011;226;48.606;9.096;2023-04-25T10:31:25;2.00;;;1.90;;
479;SDS011;226;48.606;9.096;2023-04-25T10:33:53;1.10;;;1.10;;
479;SDS011;226;48.606;9.096;2023-04-25T10:36:22;1.67;;;1.60;;
479;SDS011;226;48.606;9.096;2023-04-25T10:38:53;3.03;;;1.10;;
479;SDS011;226;48.606;9.096;2023-04-25T10:41:21;1.20;;;1.17;;
479;SDS011;226;48.606;9.096;2023-04-25T10:43:50;1.10;;;1.10;;
479;SDS011;226;48.606;9.096;2023-04-25T10:46:28;1.13;;;1.13;;
479;SDS011;226;48.606;9.096;2023-04-25T10:48:58;1.43;;;1.43;;
479;SDS011;226;48.606;9.096;2023-04-25T10:51:27;1.17;;;1.07;;
479;SDS011;226;48.606;9.096;2023-04-25T10:54:08;1.00;;;1.00;;
479;SDS011;226;48.606;9.096;2023-04-25T10:56:37;1.47;;;1.43;;
479;SDS011;226;48.606;9.096;2023-04-25T10:59:09;2.30;;;1.47;;
479;SDS011;226;48.606;9.096;2023-04-25T11:01:39;1.07;;;1.07;;
479;SDS011;226;48.606;9.096;2023-04-25T11:04:20;1.17;;;1.17;;
479;SDS011;226;48.606;9.096;2023-04-25T11:09:45;1.97;;;1.77;;
479;SDS011;226;48.606;9.096;2023-04-25T11:12:13;1.10;;;1.10;;
479;SDS011;226;48.606;9.096;2023-04-25T11:14:44;1.60;;;1.60;;
479;SDS011;226;48.606;9.096;2023-04-25T11:17:12;1.03;;;1.03;;
479;SDS011;226;48.606;9.096;2023-04-25T11:19:40;1.50;;;1.20;;
479;SDS011;226;48.606;9.096;2023-04-25T11:22:08;0.60;;;0.60;;
479;SDS011;226;48.606;9.096;2023-04-25T11:24:37;1.93;;;1.73;;
479;SDS011;226;48.606;9.096;2023-04-25T11:27:06;1.10;;;1.10;;
479;SDS011;226;48.606;9.096;2023-04-25T11:29:34;1.33;;;1.23;;
479;SDS011;226;48.606;9.096;2023-04-25T11:32:04;1.43;;;1.33;;
479;SDS011;226;48.606;9.096;2023-04-25T11:34:33;2.10;;;1.57;;
479;SDS011;226;48.606;9.096;2023-04-25T11:37:01;1.00;;;1.00;;
479;SDS011;226;48.606;9.096;2023-04-25T11:39:30;1.27;;;1.17;;
479;SDS011;226;48.606;9.096;2023-04-25T11:41:58;0.90;;;0.90;;
479;SDS011;226;48.606;9.096;2023-04-25T11:44:33;1.37;;;1.27;;
479;SDS011;226;48.606;9.096;2023-04-25T11:47:01;1.00;;;1.00;;
479;SDS011;226;48.606;9.096;2023-04-25T11:49:31;1.57;;;1.50;;
479;SDS011;226;48.606;9.096;2023-04-25T11:51:59;1.17;;;1.17;;
479;SDS011;226;48.606;9.096;2023-04-25T11:54:27;1.40;;;1.40;;
479;SDS011;226;48.606;9.096;2023-04-25T11:56:55;0.90;;;0.90;;
479;SDS011;226;48.606;9.096;2023-04-25T11:59:24;0.90;;;0.90;;
479;SDS011;226;48.606;9.096;2023-04-25T12:01:54;3.47;;;1.20;;
479;SDS011;226;48.606;9.096;2023-04-25T12:04:25;1.27;;;1.17;;
479;SDS011;226;48.606;9.096;2023-04-25T12:06:54;1.10;;;1.10;;
479;SDS011;226;48.606;9.096;2023-04-25T12:09:27;1.37;;;1.27;;
479;SDS011;226;48.606;9.096;2023-04-25T12:11:57;1.70;;;1.60;;
479;SDS011;226;48.606;9.096;2023-04-25T12:14:29;2.07;;;1.60;;
479;SDS011;226;48.606;9.096;2023-04-25T12:16:59;2.23;;;1.37;;
479;SDS011;226;48.606;9.096;2023-04-25T12:19:32;1.50;;;1.40;;
479;SDS011;226;48.606;9.096;2023-04-25T12:22:02;1.37;;;1.37;;
479;SDS011;226;48.606;9.096;2023-04-25T12:24:33;1.60;;;1.50;;
479;SDS011;226;48.606;9.096;2023-04-25T12:27:05;6.90;;;1.50;;
479;SDS011;226;48.606;9.096;2023-04-25T12:29:34;1.80;;;1.63;;
479;SDS011;226;48.606;9.096;2023-04-25T12:32:15;2.27;;;1.90;;
479;SDS011;226;48.606;9.096;2023-04-25T12:34:45;1.30;;;1.30;;
479;SDS011;226;48.606;9.096;2023-04-25T12:37:13;1.70;;;1.60;;
479;SDS011;226;48.606;9.096;2023-04-25T12:39:41;1.83;;;1.73;;
479;SDS011;226;48.606;9.096;2023-04-25T12:42:10;2.93;;;2.37;;
479;SDS011;226;48.606;9.096;2023-04-25T12:44:39;2.00;;;1.83;;
479;SDS011;226;48.606;9.096;2023-04-25T12:47:07;2.10;;;1.93;;
479;SDS011;226;48.606;9.096;2023-04-25T12:49:36;2.30;;;2.10;;
479;SDS011;226;48.606;9.096;2023-04-25T12:52:05;4.20;;;2.90;;
479;SDS011;226;48.606;9.096;2023-04-25T12:54:33;6.23;;;2.07;;
479;SDS011;226;48.606;9.096;2023-04-25T12:57:02;1.60;;;1.50;;
479;SDS011;226;48.606;9.096;2023-04-25T12:59:30;2.90;;;1.97;;
479;SDS011;226;48.606;9.096;2023-04-25T13:01:58;2.40;;;2.13;;
479;SDS011;226;48.606;9.096;2023-04-25T13:04:26;2.47;;;2.27;;
479;SDS011;226;48.606;9.096;2023-04-25T13:06:54;3.00;;;2.63;;
479;SDS011;226;48.606;9.096;2023-04-25T13:09:24;2.00;;;1.90;;
479;SDS011;226;48.606;9.096;2023-04-25T13:11:52;2.50;;;2.10;;
479;SDS011;226;48.606;9.096;2023-04-25T13:14:24;2.43;;;2.33;;
479;SDS011;226;48.606;9.096;2023-04-25T13:16:52;3.53;;;2.30;;
479;SDS011;226;48.606;9.096;2023-04-25T13:19:20;4.80;;;2.47;;
479;SDS011;226;48.606;9.096;2023-04-25T13:21:49;4.43;;;2.20;;
479;SDS011;226;48.606;9.096;2023-04-25T13:24:17;3.63;;;2.70;;
479;SDS011;226;48.606;9.096;2023-04-25T13:26:46;5.97;;;3.07;;
479;SDS011;226;48.606;9.096;2023-04-25T13:29:14;1.93;;;1.83;;
479;SDS011;226;48.606;9.096;2023-04-25T13:31:42;2.93;;;2.73;;
479;SDS011;226;48.606;9.096;2023-04-25T13:34:11;4.93;;;3.43;;
479;SDS011;226;48.606;9.096;2023-04-25T13:36:39;2.63;;;2.13;;
479;SDS011;226;48.606;9.096;2023-04-25T13:39:07;2.13;;;1.93;;
479;SDS011;226;48.606;9.096;2023-04-25T13:41:35;3.40;;;1.80;;
479;SDS011;226;48.606;9.096;2023-04-25T13:44:05;3.80;;;3.40;;
479;SDS011;226;48.606;9.096;2023-04-25T13:46:33;5.33;;;2.43;;
479;SDS011;226;48.606;9.096;2023-04-25T13:49:12;3.53;;;2.53;;
479;SDS011;226;48.606;9.096;2023-04-25T13:51:41;6.47;;;3.17;;
479;SDS011;226;48.606;9.096;2023-04-25T13:54:10;4.20;;;2.37;;
479;SDS011;226;48.606;9.096;2023-04-25T13:56:40;9.90;;;3.20;;
479;SDS011;226;48.606;9.096;2023-04-25T13:59:13;6.57;;;3.63;;
479;SDS011;226;48.606;9.096;2023-04-25T14:01:42;6.30;;;3.73;;
479;SDS011;226;48.606;9.096;2023-04-25T14:04:10;4.70;;;2.53;;
479;SDS011;226;48.606;9.096;2023-04-25T14:06:39;5.33;;;3.87;;
479;SDS011;226;48.606;9.096;2023-04-25T14:09:07;7.30;;;4.40;;
479;SDS011;226;48.606;9.096;2023-04-25T14:11:36;6.53;;;4.30;;
479;SDS011;226;48.606;9.096;2023-04-25T14:14:05;5.67;;;4.47;;
479;SDS011;226;48.606;9.096;2023-04-25T14:16:34;7.70;;;4.90;;
479;SDS011;226;48.606;9.096;2023-04-25T14:19:05;7.63;;;4.20;;
479;SDS011;226;48.606;9.096;2023-04-25T14:21:33;8.27;;;4.10;;
479;SDS011;226;48.606;9.096;2023-04-25T14:24:01;5.27;;;3.60;;
479;SDS011;226;48.606;9.096;2023-04-25T14:26:29;7.40;;;3.87;;
479;SDS011;226;48.606;9.096;2023-04-25T14:28:57;8.73;;;4.40;;
479;SDS011;226;48.606;9.096;2023-04-25T14:31:25;6.07;;;4.50;;
479;SDS011;226;48.606;9.096;2023-04-25T14:33:55;4.50;;;2.90;;
479;SDS011;226;48.606;9.096;2023-04-25T14:36:25;4.53;;;4.13;;
479;SDS011;226;48.606;9.096;2023-04-25T14:38:53;8.10;;;3.77;;
479;SDS011;226;48.606;9.096;2023-04-25T14:41:21;5.50;;;4.40;;
479;SDS011;226;48.606;9.096;2023-04-25T14:43:49;11.80;;;4.67;;
479;SDS011;226;48.606;9.096;2023-04-25T14:46:19;6.60;;;3.77;;
479;SDS011;226;48.606;9.096;2023-04-25T14:48:48;9.30;;;4.20;;
479;SDS011;226;48.606;9.096;2023-04-25T14:51:18;7.37;;;4.40;;
479;SDS011;226;48.606;9.096;2023-04-25T14:53:46;7.20;;;3.50;;
479;SDS011;226;48.606;9.096;2023-04-25T14:56:15;5.30;;;3.03;;
479;SDS011;226;48.606;9.096;2023-04-25T14:58:43;4.70;;;3.40;;
479;SDS011;226;48.606;9.096;2023-04-25T15:01:11;6.30;;;3.80;;
479;SDS011;226;48.606;9.096;2023-04-25T15:03:40;8.87;;;4.93;;
479;SDS011;226;48.606;9.096;2023-04-25T15:06:09;4.40;;;3.30;;
479;SDS011;226;48.606;9.096;2023-04-25T15:08:38;3.87;;;3.47;;
479;SDS011;226;48.606;9.096;2023-04-25T15:11:06;8.03;;;3.87;;
479;SDS011;226;48.606;9.096;2023-04-25T15:13:34;4.93;;;3.47;;
479;SDS011;226;48.606;9.096;2023-04-25T15:16:03;5.40;;;3.13;;
479;SDS011;226;48.606;9.096;2023-04-25T15:18:32;6.17;;;3.30;;
479;SDS011;226;48.606;9.096;2023-04-25T15:21:00;7.00;;;4.20;;
479;SDS011;226;48.606;9.096;2023-04-25T15:23:28;6.50;;;3.43;;
479;SDS011;226;48.606;9.096;2023-04-25T15:25:58;6.37;;;3.23;;
479;SDS011;226;48.606;9.096;2023-04-25T15:28:26;3.30;;;3.00;;
479;SDS011;226;48.606;9.096;2023-04-25T15:30:54;2.80;;;2.60;;
479;SDS011;226;48.606;9.096;2023-04-25T15:33:23;3.77;;;2.90;;
479;SDS011;226;48.606;9.096;2023-04-25T15:35:53;4.90;;;2.90;;
479;SDS011;226;48.606;9.096;2023-04-25T15:38:21;4.00;;;2.20;;
479;SDS011;226;48.606;9.096;2023-04-25T15:40:51;5.97;;;2.50;;
479;SDS011;226;48.606;9.096;2023-04-25T15:43:22;6.57;;;2.60;;
479;SDS011;226;48.606;9.096;2023-04-25T15:45:52;5.77;;;2.67;;
479;SDS011;226;48.606;9.096;2023-04-25T15:48:21;5.77;;;2.83;;
479;SDS011;226;48.606;9.096;2023-04-25T15:50:49;4.70;;;3.13;;
479;SDS011;226;48.606;9.096;2023-04-25T15:53:19;2.93;;;2.30;;
479;SDS011;226;48.606;9.096;2023-04-25T15:55:47;13.80;;;1.93;;
479;SDS011;226;48.606;9.096;2023-04-25T15:58:16;2.50;;;2.13;;